Time;durP1;ratioP1;P1;durP2;ratioP2;P2;SDS_P1;SDS_P2;PMS_P1;PMS_P2;Temp;Humidity;BMP_temperature;BMP_pressure;BME280_temperature;BME280_humidity;BME280_pressure;Samples;Min_cycle;Max_cycle;Signal;HPM_P1;HPM_P2
2022/11/20 00:00:15;;;;;;;16.02;12.05;;;;;;;3.87;82.87;99442.31;1086447;54;20106;-79
2022/11/20 00:01:21;;;;;;;17.17;12.00;;;;;;;3.88;83.29;99446.63;1086455;54;20042;-78
2022/11/20 00:02:22;;;;;;;17.45;12.52;;;;;;;3.93;83.17;99458.69;1086464;47;20113;-79
2022/11/20 00:03:29;;;;;;;15.05;10.82;;;;;;;4.00;83.15;99449.31;1086603;54;20034;-78
2022/11/20 00:04:33;;;;;;;15.90;11.63;;;;;;;4.03;83.02;99446.44;1086716;54;20038;-79
2022/11/20 00:05:35;;;;;;;14.88;10.95;;;;;;;4.04;83.11;99443.69;1086372;54;20073;-77
2022/11/20 00:06:39;;;;;;;15.10;11.27;;;;;;;4.03;83.01;99446.44;1086577;54;20042;-78
2022/11/20 00:07:40;;;;;;;15.60;11.02;;;;;;;4.04;82.99;99438.38;1086435;54;20062;-78
2022/11/20 00:08:45;;;;;;;15.57;11.35;;;;;;;4.01;82.79;99443.06;1086473;54;20030;-78
2022/11/20 00:09:47;;;;;;;14.75;10.68;;;;;;;4.00;83.06;99449.31;1086493;54;20125;-79
2022/11/20 00:10:51;;;;;;;17.10;12.02;;;;;;;4.05;82.96;99455.13;1086602;54;20039;-78
2022/11/20 00:11:55;;;;;;;13.80;10.55;;;;;;;4.09;82.99;99455.72;1086757;54;20054;-79
2022/11/20 00:12:57;;;;;;;15.90;11.43;;;;;;;4.09;82.81;99455.72;1086713;47;20043;-78
2022/11/20 00:14:03;;;;;;;17.15;12.30;;;;;;;3.98;82.54;99446.81;1086543;54;20046;-80
2022/11/20 00:15:06;;;;;;;15.80;12.05;;;;;;;3.95;82.73;99451.47;1086406;54;20050;-78
2022/11/20 00:16:16;;;;;;;16.33;11.23;;;;;;;3.99;83.05;99450.28;1086257;54;20038;-79
2022/11/20 00:17:17;;;;;;;14.97;11.63;;;;;;;3.99;82.94;99450.28;1086058;54;20129;-79
2022/11/20 00:18:21;;;;;;;17.27;12.35;;;;;;;3.93;82.99;99446.28;1086291;54;20255;-78
2022/11/20 00:19:26;;;;;;;15.10;11.52;;;;;;;4.01;83.13;99445.72;1086498;54;20094;-79
2022/11/20 00:20:30;;;;;;;15.23;10.68;;;;;;;4.06;82.96;99448.88;1086536;54;20042;-77
2022/11/20 00:21:32;;;;;;;14.23;10.45;;;;;;;4.11;82.98;99449.34;1086871;47;20110;-77
2022/11/20 00:22:36;;;;;;;16.10;11.43;;;;;;;4.07;82.83;99442.59;1086672;54;20046;-77
2022/11/20 00:23:42;;;;;;;17.02;11.50;;;;;;;4.04;82.49;99438.38;1086788;54;20061;-77
2022/11/20 00:24:46;;;;;;;16.92;12.65;;;;;;;4.01;82.85;99453.66;1086806;54;20030;-77
2022/11/20 00:25:48;;;;;;;15.63;11.35;;;;;;;3.97;83.44;99442.47;1086639;54;20049;-77
2022/11/20 00:26:52;;;;;;;15.10;11.52;;;;;;;4.04;83.29;99448.13;1086626;54;20038;-78
2022/11/20 00:27:54;;;;;;;14.07;10.82;;;;;;;4.09;83.08;99445.97;1086556;54;20038;-78
2022/11/20 00:29:00;;;;;;;14.30;10.55;;;;;;;4.14;82.91;99448.25;1086404;54;20038;-77
2022/11/20 00:30:03;;;;;;;13.30;9.52;;;;;;;4.19;82.76;99446.94;1086662;54;20042;-77
2022/11/20 00:31:09;;;;;;;13.23;9.40;;;;;;;4.21;82.71;99450.31;1086705;54;20041;-77
2022/11/20 00:32:10;;;;;;;14.05;10.45;;;;;;;4.18;82.60;99450.56;1086633;54;20055;-79
2022/11/20 00:33:14;;;;;;;14.50;11.45;;;;;;;4.14;82.63;99446.47;1086603;54;20034;-79
2022/11/20 00:34:15;;;;;;;15.07;11.05;;;;;;;4.17;82.65;99448.84;1086377;54;20046;-78
2022/11/20 00:35:22;;;;;;;16.80;12.15;;;;;;;4.10;82.63;99437.06;1086338;54;20041;-78
2022/11/20 00:36:28;;;;;;;16.27;11.85;;;;;;;4.10;82.97;99439.72;1086178;54;20086;-80
2022/11/20 00:37:30;;;;;;;14.50;10.73;;;;;;;4.15;82.55;99440.22;1086200;54;20050;-78
2022/11/20 00:38:35;;;;;;;15.45;10.85;;;;;;;4.19;82.67;99440.81;1086424;54;20030;-78
2022/11/20 00:39:39;;;;;;;13.90;10.30;;;;;;;4.16;82.68;99444.53;1086334;54;20050;-78
2022/11/20 00:40:40;;;;;;;14.25;10.48;;;;;;;4.16;82.72;99446.34;1086333;54;20050;-79
2022/11/20 00:41:44;;;;;;;13.90;9.65;;;;;;;4.24;82.69;99446.59;1086467;54;20038;-78
2022/11/20 00:42:46;;;;;;;13.98;9.63;;;;;;;4.28;82.38;99447.19;1090478;31;20676;-79
2022/11/20 00:43:50;;;;;;;12.38;9.35;;;;;;;4.27;82.47;99445.50;1086663;54;20064;-78
2022/11/20 00:44:52;;;;;;;13.80;9.75;;;;;;;4.28;82.80;99445.41;1087322;54;20046;-79
2022/11/20 00:45:59;;;;;;;15.45;11.20;;;;;;;4.20;82.19;99437.22;1087787;54;20030;-78
2022/11/20 00:47:00;;;;;;;14.48;10.77;;;;;;;4.19;82.62;99431.06;1087839;54;20043;-77
2022/11/20 00:48:05;;;;;;;14.60;10.48;;;;;;;4.21;82.47;99438.88;1088495;46;20033;-78
2022/11/20 00:49:06;;;;;;;13.18;9.70;;;;;;;4.27;82.63;99438.41;1087782;54;20057;-78
2022/11/20 00:50:11;;;;;;;12.95;9.50;;;;;;;4.30;82.35;99443.44;1088682;46;20026;-77
2022/11/20 00:51:18;;;;;;;14.00;10.38;;;;;;;4.20;82.80;99447.81;1087702;54;20090;-77
2022/11/20 00:52:22;;;;;;;14.38;10.07;;;;;;;4.26;82.64;99446.47;1087930;47;20031;-77
2022/11/20 00:53:23;;;;;;;14.07;9.68;;;;;;;4.33;82.51;99448.53;1088738;46;20030;-78
2022/11/20 00:54:27;;;;;;;12.57;9.18;;;;;;;4.37;82.44;99441.19;1087721;54;20035;-78
2022/11/20 00:55:29;;;;;;;15.27;10.10;;;;;;;4.41;82.25;99434.69;1088507;46;20035;-77
2022/11/20 00:56:33;;;;;;;12.02;8.95;;;;;;;4.42;82.07;99446.13;1087131;54;20037;-78
2022/11/20 00:57:34;;;;;;;11.10;8.35;;;;;;;4.45;81.94;99449.34;1086517;47;20074;-78
2022/11/20 00:58:41;;;;;;;12.35;8.45;;;;;;;4.43;82.22;99442.50;1086105;54;20050;-79
2022/11/20 00:59:42;;;;;;;13.02;9.63;;;;;;;4.42;82.03;99446.13;1086108;47;20054;-78
2022/11/20 01:00:46;;;;;;;14.10;10.43;;;;;;;4.40;82.17;99451.53;1086186;54;20049;-78
2022/11/20 01:01:48;;;;;;;14.55;10.38;;;;;;;4.42;81.85;99440.81;1086145;54;20647;-80
2022/11/20 01:02:52;;;;;;;13.57;10.15;;;;;;;4.40;82.13;99446.25;1086000;54;20038;-80
2022/11/20 01:03:55;;;;;;;12.95;10.35;;;;;;;4.39;81.92;99447.19;1086165;47;20108;-79
2022/11/20 01:04:59;;;;;;;14.80;10.80;;;;;;;4.40;82.26;99454.19;1085830;54;20042;-79
2022/11/20 01:06:02;;;;;;;13.18;9.60;;;;;;;4.44;82.05;99452.13;1086046;54;20050;-78
2022/11/20 01:07:09;;;;;;;15.07;11.00;;;;;;;4.46;82.04;99453.69;1085954;54;20680;-78
2022/11/20 01:08:10;;;;;;;13.05;10.07;;;;;;;4.46;82.01;99452.88;1086115;54;20050;-77
2022/11/20 01:09:16;;;;;;;15.57;11.57;;;;;;;4.35;81.94;99454.53;1086042;54;20050;-79
2022/11/20 01:10:17;;;;;;;14.57;10.68;;;;;;;4.38;82.05;99453.47;1086241;54;20046;-77
2022/11/20 01:11:25;;;;;;;17.00;12.55;;;;;;;4.34;81.87;99449.38;1086498;54;20640;-77
2022/11/20 01:12:26;;;;;;;15.15;11.80;;;;;;;4.31;82.30;99449.59;1086440;47;20058;-78
2022/11/20 01:13:41;;;;;;;14.98;11.13;;;;;;;4.31;82.11;99452.25;1085917;54;20045;-81
2022/11/20 01:14:43;;;;;;;14.75;11.13;;;;;;;4.25;82.46;99453.56;1085761;54;20039;-79
2022/11/20 01:15:47;;;;;;;14.70;10.80;;;;;;;4.31;82.17;99444.31;1085454;54;20058;-80
2022/11/20 01:16:53;;;;;;;14.07;10.18;;;;;;;4.34;82.11;99439.63;1084988;54;20131;-81
2022/11/20 01:17:55;;;;;;;13.25;10.10;;;;;;;4.35;81.96;99448.38;1085275;54;20042;-80
2022/11/20 01:19:01;;;;;;;12.82;10.00;;;;;;;4.39;82.17;99444.56;1085238;54;20051;-80
2022/11/20 01:20:03;;;;;;;14.50;9.85;;;;;;;4.38;81.83;99450.81;1084340;54;20568;-81
2022/11/20 01:21:10;;;;;;;13.98;10.02;;;;;;;4.40;82.11;99446.25;1085264;39;20470;-80
2022/11/20 01:22:14;;;;;;;14.77;10.43;;;;;;;4.31;82.18;99449.59;1084245;54;20050;-81
2022/11/20 01:23:19;;;;;;;14.35;10.45;;;;;;;4.32;82.29;99453.94;1084493;54;20063;-80
2022/11/20 01:24:24;;;;;;;14.27;10.27;;;;;;;4.33;82.25;99450.34;1084820;39;20897;-81
2022/11/20 01:25:26;;;;;;;13.63;9.90;;;;;;;4.26;82.31;99443.81;1084613;54;20106;-81
2022/11/20 01:26:32;;;;;;;16.35;11.30;;;;;;;4.21;82.65;99450.31;1084899;39;20445;-80
2022/11/20 01:27:33;;;;;;;18.20;12.65;;;;;;;4.20;82.41;99456.56;1084679;47;20080;-80
2022/11/20 01:28:38;;;;;;;15.60;11.30;;;;;;;4.09;82.91;99456.56;1084509;54;20054;-80
2022/11/20 01:29:39;;;;;;;17.92;12.57;;;;;;;3.98;83.71;99453.88;1084700;54;20062;-81
2022/11/20 01:30:45;;;;;;;16.85;12.95;;;;;;;4.04;83.48;99453.44;1085444;47;20565;-81
2022/11/20 01:31:46;;;;;;;16.17;11.55;;;;;;;4.11;83.10;99441.41;1084573;54;20050;-80
2022/11/20 01:32:51;;;;;;;16.38;12.20;;;;;;;4.21;82.72;99445.03;1085107;54;20074;-80
2022/11/20 01:33:54;;;;;;;16.95;11.77;;;;;;;4.28;82.31;99452.47;1084774;54;20604;-79
2022/11/20 01:34:59;;;;;;;18.63;12.27;;;;;;;4.33;82.19;99450.34;1084580;54;20063;-82
2022/11/20 01:36:05;;;;;;;16.08;11.75;;;;;;;4.34;82.39;99449.38;1084701;54;20038;-81
2022/11/20 01:37:09;;;;;;;15.27;10.55;;;;;;;4.29;82.67;99451.53;1084829;54;20576;-81
2022/11/20 01:38:15;;;;;;;16.73;12.20;;;;;;;4.18;83.37;99450.56;1084742;54;20050;-82
2022/11/20 01:39:21;;;;;;;16.83;12.40;;;;;;;4.24;83.25;99451.88;1084712;54;20038;-81
2022/11/20 01:40:22;;;;;;;14.77;11.00;;;;;;;4.33;83.23;99445.88;1084727;54;20054;-81
2022/11/20 01:44:15;;;;;;;17.98;13.18;;;;;;;4.08;83.93;99433.69;1084658;54;20030;-80
2022/11/20 01:45:49;;;;;;;17.85;13.32;;;;;;;4.06;83.99;99440.94;1084952;54;20557;-83
2022/11/20 01:46:59;;;;;;;17.52;12.20;;;;;;;4.00;84.24;99436.09;1085554;31;20576;-81
2022/11/20 01:48:01;;;;;;;;;;;;;;;4.10;84.52;99431.78;1085261;47;20138;-81
2022/11/20 01:49:09;;;;;;;15.15;11.05;;;;;;;4.28;83.48;99428.66;1084991;54;19943;-80
2022/11/20 01:50:16;;;;;;;15.93;11.75;;;;;;;4.30;83.51;99421.47;1084600;54;20651;-83
2022/11/20 01:51:28;;;;;;;16.90;11.85;;;;;;;4.35;83.31;99425.44;1084892;54;20100;-80
2022/11/20 01:52:35;;;;;;;16.45;11.80;;;;;;;4.40;82.90;99424.22;1084574;54;20106;-81
2022/11/20 01:53:42;;;;;;;14.68;10.63;;;;;;;4.44;82.89;99423.84;1084436;54;20042;-81
2022/11/20 01:54:50;;;;;;;15.43;11.43;;;;;;;4.39;82.77;99426.03;1086455;31;20521;-80
2022/11/20 01:55:57;;;;;;;16.17;10.73;;;;;;;4.50;82.64;99426.03;1085033;54;20126;-79
2022/11/20 01:57:00;;;;;;;14.95;10.63;;;;;;;4.56;82.23;99422.06;1085031;54;20055;-80
2022/11/20 01:58:11;;;;;;;14.55;10.48;;;;;;;4.57;82.30;99412.31;1085761;54;20027;-80
2022/11/20 01:59:15;;;;;;;15.60;10.73;;;;;;;4.60;82.19;99426.13;1092858;47;20033;-82
2022/11/20 02:00:22;;;;;;;13.93;9.75;;;;;;;4.64;82.43;99424.94;1088628;47;20014;-83
2022/11/20 02:01:23;;;;;;;12.93;9.27;;;;;;;4.70;82.40;99418.31;1088324;54;20042;-80
2022/11/20 02:02:29;;;;;;;13.10;9.48;;;;;;;4.76;82.01;99423.13;1088605;54;20018;-83
2022/11/20 02:03:31;;;;;;;12.65;9.50;;;;;;;4.76;82.16;99417.81;1088647;54;20014;-80
2022/11/20 02:04:36;;;;;;;13.98;10.20;;;;;;;4.74;82.30;99424.22;1092621;46;20022;-81
2022/11/20 02:05:43;;;;;;;14.13;10.48;;;;;;;4.77;82.38;99419.50;1088564;54;20034;-82
2022/11/20 02:06:51;;;;;;;16.70;10.38;;;;;;;4.78;82.58;99421.19;1088659;54;20039;-80
2022/11/20 02:07:57;;;;;;;14.15;10.55;;;;;;;4.76;82.56;99422.28;1088590;54;20027;-83
2022/11/20 02:09:03;;;;;;;16.90;12.50;;;;;;;4.63;82.87;99422.44;1090027;46;20018;-83
2022/11/20 02:10:06;;;;;;;17.33;12.10;;;;;;;4.57;82.93;99420.25;1088238;54;20046;-83
2022/11/20 02:11:12;;;;;;;16.80;12.20;;;;;;;4.53;83.39;99424.94;1088354;39;20448;-81
2022/11/20 02:13:43;;;;;;;16.40;12.10;;;;;;;4.61;83.36;99429.63;1086021;54;20060;-81
2022/11/20 02:14:47;;;;;;;15.20;10.90;;;;;;;4.67;82.98;99423.84;1085484;54;20099;-81
2022/11/20 02:15:49;;;;;;;16.60;12.13;;;;;;;4.71;83.03;99420.00;1085771;54;20065;-81
2022/11/20 02:16:54;;;;;;;15.77;11.38;;;;;;;4.71;82.91;99422.66;1085657;54;20038;-83
2022/11/20 02:17:56;;;;;;;14.52;10.68;;;;;;;4.79;82.75;99427.31;1086137;54;20073;-83
2022/11/20 02:19:04;;;;;;;14.52;10.77;;;;;;;4.81;82.38;99420.09;1085480;54;20089;-82
2022/11/20 02:20:07;;;;;;;14.95;11.20;;;;;;;4.79;82.48;99420.22;1085574;54;20042;-81
2022/11/20 02:21:21;;;;;;;14.90;10.95;;;;;;;4.80;82.25;99419.28;1085627;54;20137;-79
2022/11/20 02:22:28;;;;;;;14.32;10.32;;;;;;;4.82;82.40;99425.25;1086278;46;20584;-80
2022/11/20 02:23:39;;;;;;;17.02;11.82;;;;;;;4.80;82.36;99424.56;1086871;31;20600;-82
2022/11/20 02:24:48;;;;;;;;;;;;;;;4.74;82.57;99418.91;1086304;47;20122;-80
2022/11/20 02:25:50;;;;;;;13.73;9.38;;;;;;;4.76;82.41;99425.75;1085875;54;19950;-80
2022/11/20 02:27:04;;;;;;;14.57;10.80;;;;;;;4.77;82.56;99427.44;1085824;54;20038;-82
2022/11/20 02:28:06;;;;;;;13.65;9.88;;;;;;;4.84;82.50;99430.44;1085849;54;20054;-81
2022/11/20 02:29:21;;;;;;;13.93;9.90;;;;;;;4.89;82.54;99422.13;1085739;54;20130;-80
2022/11/20 02:30:23;;;;;;;12.50;9.27;;;;;;;4.88;82.47;99415.97;1085860;54;20042;-80
2022/11/20 02:31:27;;;;;;;13.90;9.50;;;;;;;4.92;82.26;99414.78;1085730;54;20557;-82
2022/11/20 02:32:31;;;;;;;13.20;9.20;;;;;;;4.93;82.33;99423.56;1085700;54;20581;-79
2022/11/20 02:33:36;;;;;;;13.77;9.70;;;;;;;4.96;82.32;99415.38;1085851;54;20037;-80
2022/11/20 02:34:40;;;;;;;14.63;9.57;;;;;;;4.98;82.23;99419.56;1085974;54;20106;-81
2022/11/20 02:35:44;;;;;;;13.48;10.10;;;;;;;4.99;82.34;99417.78;1085925;47;20057;-80
2022/11/20 02:36:55;;;;;;;13.02;9.40;;;;;;;4.98;82.29;99422.22;1085726;54;20071;-80
2022/11/20 02:38:00;;;;;;;13.70;9.63;;;;;;;4.92;82.56;99419.22;1085722;54;20110;-80
2022/11/20 02:39:12;;;;;;;13.45;9.77;;;;;;;4.89;82.61;99422.97;1085935;54;20038;-82
2022/11/20 02:40:16;;;;;;;13.85;10.35;;;;;;;4.92;82.68;99416.56;1085789;54;20102;-81
2022/11/20 02:41:22;;;;;;;13.98;10.23;;;;;;;5.00;82.67;99411.53;1086378;46;20054;-81
2022/11/20 02:42:24;;;;;;;14.18;9.77;;;;;;;5.03;82.40;99413.06;1086298;46;20046;-81
2022/11/20 02:43:28;;;;;;;15.15;10.82;;;;;;;4.92;82.79;99405.97;1085974;54;20026;-80
2022/11/20 02:44:29;;;;;;;14.98;11.55;;;;;;;4.75;83.01;99416.13;1085862;46;20617;-80
2022/11/20 02:45:34;;;;;;;15.63;11.25;;;;;;;4.72;83.71;99408.44;1085666;54;20592;-81
2022/11/20 02:46:35;;;;;;;18.48;12.60;;;;;;;4.77;83.62;99402.78;1086118;54;20126;-81
2022/11/20 02:47:46;;;;;;;15.32;11.23;;;;;;;4.77;83.57;99408.91;1086128;54;20027;-82
2022/11/20 02:48:48;;;;;;;16.50;12.57;;;;;;;4.81;83.55;99409.50;1085940;54;20046;-81
2022/11/20 02:49:55;;;;;;;14.00;10.43;;;;;;;4.89;83.37;99407.06;1086740;46;20090;-80
2022/11/20 02:50:56;;;;;;;15.35;11.40;;;;;;;4.92;83.08;99411.28;1086136;54;20042;-82
2022/11/20 02:52:00;;;;;;;12.65;9.98;;;;;;;5.00;83.03;99404.41;1086490;39;20729;-82
2022/11/20 02:53:02;;;;;;;15.98;11.27;;;;;;;4.96;83.22;99402.13;1086607;39;20723;-80
2022/11/20 02:54:12;;;;;;;15.95;11.70;;;;;;;4.98;82.95;99398.38;1086207;54;20034;-80
2022/11/20 02:55:16;;;;;;;15.95;11.23;;;;;;;5.03;82.90;99402.47;1086256;54;20586;-82
2022/11/20 02:56:21;;;;;;;14.40;10.32;;;;;;;5.11;82.70;99395.56;1086588;46;20042;-81
2022/11/20 02:57:22;;;;;;;13.98;10.43;;;;;;;5.17;82.82;99396.03;1086482;46;20061;-81
2022/11/20 02:58:27;;;;;;;14.27;10.13;;;;;;;5.20;82.25;99395.78;1086260;54;20035;-80
2022/11/20 02:59:29;;;;;;;14.32;9.88;;;;;;;5.21;82.66;99389.50;1086580;39;20674;-80
2022/11/20 03:00:35;;;;;;;14.05;10.05;;;;;;;5.22;82.57;99393.84;1086270;54;20034;-80
2022/11/20 03:01:36;;;;;;;14.48;10.38;;;;;;;5.18;82.50;99395.09;1086223;54;20054;-81
2022/11/20 03:02:45;;;;;;;14.82;10.90;;;;;;;5.20;82.89;99396.63;1088579;39;20949;-81
2022/11/20 03:03:48;;;;;;;14.32;9.82;;;;;;;5.25;82.64;99398.91;1086189;46;20034;-80
2022/11/20 03:04:52;;;;;;;14.55;10.32;;;;;;;5.29;82.57;99387.09;1086314;54;20050;-83
2022/11/20 03:05:53;;;;;;;14.45;10.52;;;;;;;5.26;82.65;99396.13;1085953;54;20039;-80
2022/11/20 03:07:05;;;;;;;14.90;11.10;;;;;;;5.27;82.96;99392.50;1085887;54;20058;-80
2022/11/20 03:08:06;;;;;;;13.95;10.50;;;;;;;5.29;82.68;99387.09;1086112;54;20069;-81
2022/11/20 03:09:10;;;;;;;15.95;10.30;;;;;;;5.31;82.60;99395.75;1087194;39;20525;-79
2022/11/20 03:10:12;;;;;;;14.45;10.73;;;;;;;5.33;82.35;99393.81;1086179;47;20151;-81
2022/11/20 03:11:23;;;;;;;16.98;11.65;;;;;;;5.30;82.62;99391.41;1086158;47;20108;-80
2022/11/20 03:12:24;;;;;;;14.90;10.88;;;;;;;5.31;82.54;99390.44;1086223;46;20122;-80
2022/11/20 03:13:35;;;;;;;15.48;10.43;;;;;;;5.32;82.55;99386.81;1086638;46;20034;-81
2022/11/20 03:14:36;;;;;;;15.57;10.98;;;;;;;5.27;82.58;99392.50;1086451;46;20042;-81
2022/11/20 03:15:48;;;;;;;16.52;11.32;;;;;;;5.24;82.93;99390.09;1086587;47;20533;-80
2022/11/20 03:16:50;;;;;;;13.75;9.98;;;;;;;5.24;82.75;99384.78;1086533;54;20573;-80
2022/11/20 03:17:56;;;;;;;15.45;11.05;;;;;;;5.27;83.05;99381.06;1086096;54;20065;-79
2022/11/20 03:18:58;;;;;;;14.05;10.52;;;;;;;5.28;82.79;99380.09;1086415;47;20541;-79
2022/11/20 03:20:17;;;;;;;16.00;11.27;;;;;;;5.25;83.37;99380.34;1086345;46;20049;-80
2022/11/20 03:21:19;;;;;;;13.93;10.32;;;;;;;5.27;83.10;99384.56;1087067;46;20949;-80
2022/11/20 03:22:27;;;;;;;12.90;9.38;;;;;;;5.27;82.88;99384.56;1086461;47;20027;-81
2022/11/20 03:23:29;;;;;;;14.68;10.90;;;;;;;5.27;83.11;99381.06;1086446;54;20353;-81
2022/11/20 03:24:33;;;;;;;14.90;10.90;;;;;;;5.29;82.86;99377.31;1086116;54;20030;-80
2022/11/20 03:25:35;;;;;;;14.20;11.00;;;;;;;5.31;83.00;99378.03;1086512;54;20042;-83
2022/11/20 03:26:47;;;;;;;14.02;10.20;;;;;;;5.36;82.95;99380.31;1087360;46;20030;-79
2022/11/20 03:27:49;;;;;;;13.25;10.02;;;;;;;5.39;82.78;99392.47;1086723;46;20566;-82
2022/11/20 03:29:01;;;;;;;13.23;10.02;;;;;;;5.38;82.65;99373.06;1086617;54;20033;-80
2022/11/20 03:30:03;;;;;;;13.02;10.48;;;;;;;5.43;82.66;99372.69;1095412;39;20513;-81
2022/11/20 03:31:11;;;;;;;14.80;9.90;;;;;;;5.42;82.66;99371.84;1086470;54;20042;-81
2022/11/20 03:32:12;;;;;;;13.00;9.88;;;;;;;5.37;82.88;99374.03;1086954;46;20615;-79
2022/11/20 03:33:31;;;;;;;13.77;9.60;;;;;;;5.40;83.07;99376.41;1086490;54;20030;-80
2022/11/20 03:34:33;;;;;;;15.00;10.88;;;;;;;5.42;82.97;99376.31;1086907;39;20541;-81
2022/11/20 03:35:41;;;;;;;15.05;10.93;;;;;;;5.44;82.95;99375.22;1086561;47;20027;-79
2022/11/20 03:36:43;;;;;;;15.13;10.15;;;;;;;5.48;82.78;99381.09;1086683;46;20591;-80
2022/11/20 03:37:48;;;;;;;13.50;10.07;;;;;;;5.49;82.97;99372.16;1086789;54;20111;-80
2022/11/20 03:38:49;;;;;;;13.43;10.27;;;;;;;5.52;82.58;99365.75;1087298;31;20462;-80
2022/11/20 03:39:55;;;;;;;13.52;9.93;;;;;;;5.55;82.60;99368.16;1086451;54;20038;-80
2022/11/20 03:41:00;;;;;;;11.65;8.75;;;;;;;5.58;82.60;99368.75;1086303;47;20098;-79
2022/11/20 03:43:33;;;;;;;12.10;9.25;;;;;;;5.58;82.67;99370.53;1086632;54;20564;-81
2022/11/20 03:44:34;;;;;;;14.02;9.90;;;;;;;5.54;83.10;99371.78;1086785;54;20149;-80
2022/11/20 03:45:44;;;;;;;14.48;10.45;;;;;;;5.49;83.81;99374.81;1086624;54;20035;-80
2022/11/20 03:46:46;;;;;;;14.45;10.82;;;;;;;5.46;83.81;99370.63;1086744;47;20058;-79
2022/11/20 03:51:23;;;;;;;16.58;12.35;;;;;;;5.39;85.12;99364.13;1085499;54;20034;-81
2022/11/20 03:52:25;;;;;;;18.80;13.30;;;;;;;5.46;84.85;99362.66;1086892;46;20046;-79
2022/11/20 03:53:33;;;;;;;16.20;11.15;;;;;;;5.46;84.95;99362.66;1086238;54;20070;-81
2022/11/20 03:54:34;;;;;;;16.58;11.73;;;;;;;5.46;84.86;99373.28;1087898;46;20069;-81
2022/11/20 03:55:39;;;;;;;15.95;11.63;;;;;;;5.53;84.88;99372.75;1086565;54;20035;-79
2022/11/20 03:56:47;;;;;;;15.82;11.55;;;;;;;5.60;84.52;99364.16;1086572;47;20026;-80
2022/11/20 04:06:14;;;;;;;14.80;11.00;;;;;;;5.67;85.63;99358.31;1085492;54;20038;-78
2022/11/20 04:08:41;;;;;;;15.95;11.27;;;;;;;5.66;85.93;99364.59;1086913;39;20526;-78
2022/11/20 04:09:43;;;;;;;16.50;11.52;;;;;;;5.75;86.05;99355.84;1087235;46;20026;-79
2022/11/20 04:10:54;;;;;;;16.48;11.48;;;;;;;5.78;86.05;99360.91;1086725;54;20035;-79
2022/11/20 04:11:55;;;;;;;15.55;11.05;;;;;;;5.82;85.88;99361.50;1086992;39;20449;-79
2022/11/20 04:13:00;;;;;;;14.63;10.77;;;;;;;5.85;85.81;99361.25;1087302;46;20026;-78
2022/11/20 04:14:03;;;;;;;14.00;10.82;;;;;;;5.90;85.72;99357.19;1088371;46;20557;-78
2022/11/20 04:15:10;;;;;;;14.70;9.82;;;;;;;5.96;85.74;99358.47;1086354;54;20037;-78
2022/11/20 04:16:12;;;;;;;12.48;9.30;;;;;;;6.01;85.38;99358.13;1086644;54;20053;-79
2022/11/20 04:18:28;;;;;;;13.32;9.52;;;;;;;5.96;85.93;99358.47;1087854;39;20452;-77
2022/11/20 04:19:31;;;;;;;14.80;10.43;;;;;;;5.92;86.26;99355.25;1086473;47;20057;-79
2022/11/20 04:20:35;;;;;;;14.93;10.55;;;;;;;5.85;86.36;99358.59;1086617;54;20030;-79
2022/11/20 04:21:44;;;;;;;13.65;10.02;;;;;;;5.90;86.69;99354.53;1087357;46;20073;-79
2022/11/20 04:22:48;;;;;;;16.00;10.05;;;;;;;6.02;85.74;99352.69;1087571;46;20027;-79
2022/11/20 04:23:57;;;;;;;14.07;9.40;;;;;;;5.99;86.13;99355.59;1086631;46;20050;-78
2022/11/20 04:25:02;;;;;;;11.85;9.10;;;;;;;6.04;86.04;99352.56;1085930;54;20600;-78
2022/11/20 04:26:08;;;;;;;11.82;9.15;;;;;;;6.11;85.78;99351.03;1085834;54;20038;-79
2022/11/20 04:27:13;;;;;;;11.20;8.32;;;;;;;6.17;85.81;99352.31;1085175;46;20034;-81
2022/11/20 04:28:14;;;;;;;11.82;8.00;;;;;;;6.18;85.51;99351.34;1085102;46;20529;-80
2022/11/20 04:29:19;;;;;;;11.18;8.73;;;;;;;6.20;85.35;99350.25;1084871;46;20045;-79
2022/11/20 04:30:22;;;;;;;10.82;8.48;;;;;;;6.23;85.54;99349.16;1084315;47;20070;-80
2022/11/20 04:31:30;;;;;;;11.10;7.72;;;;;;;6.20;85.78;99342.28;1085740;39;20456;-80
2022/11/20 04:32:31;;;;;;;12.13;9.20;;;;;;;6.25;85.36;99347.19;1084577;54;20069;-81
2022/11/20 04:33:36;;;;;;;11.27;8.25;;;;;;;6.33;85.45;99351.84;1084785;54;20030;-79
2022/11/20 04:34:37;;;;;;;13.05;9.35;;;;;;;6.28;85.74;99352.22;1084369;54;20034;-81
2022/11/20 04:35:42;;;;;;;12.73;9.10;;;;;;;6.27;85.55;99345.25;1084362;54;20613;-79
2022/11/20 04:36:46;;;;;;;11.75;8.55;;;;;;;6.33;85.65;99346.53;1084538;54;20039;-82
2022/11/20 04:37:50;;;;;;;13.25;8.55;;;;;;;6.29;85.91;99343.31;1084633;54;20046;-80
2022/11/20 04:38:53;;;;;;;11.88;8.68;;;;;;;6.32;85.88;99351.00;1084679;54;20073;-80
2022/11/20 04:39:58;;;;;;;11.38;8.35;;;;;;;6.38;85.60;99347.81;1084498;47;20517;-79
2022/11/20 04:41:03;;;;;;;11.02;7.57;;;;;;;6.44;85.79;99350.88;1084698;54;20054;-79
2022/11/20 04:43:28;;;;;;;11.57;8.30;;;;;;;6.28;86.54;99357.53;1084676;54;20042;-80
2022/11/20 04:44:29;;;;;;;9.73;6.97;;;;;;;6.28;86.37;99351.41;1084605;54;20251;-79
2022/11/20 04:45:34;;;;;;;11.07;8.18;;;;;;;6.37;86.07;99340.81;1084519;54;20545;-80
2022/11/20 04:46:38;;;;;;;11.30;8.55;;;;;;;6.23;86.66;99349.16;1085336;39;20509;-79
2022/11/20 04:47:43;;;;;;;12.25;6.90;;;;;;;6.37;86.42;99350.59;1084718;54;20063;-80
2022/11/20 04:48:45;;;;;;;9.18;6.88;;;;;;;6.50;85.64;99340.56;1084697;54;20034;-80
2022/11/20 04:49:50;;;;;;;11.52;7.28;;;;;;;6.43;86.17;99349.19;1084777;54;20568;-79
2022/11/20 04:50:52;;;;;;;11.07;7.78;;;;;;;6.42;86.19;99342.22;1085065;46;20061;-80
2022/11/20 04:52:05;;;;;;;10.45;7.22;;;;;;;6.42;85.96;99342.22;1084932;54;20549;-80
2022/11/20 04:53:06;;;;;;;10.02;7.35;;;;;;;6.47;85.74;99345.31;1084886;54;20026;-79
2022/11/20 04:54:12;;;;;;;11.27;7.63;;;;;;;6.39;86.06;99341.53;1084698;54;20154;-80
2022/11/20 04:55:14;;;;;;;10.40;7.68;;;;;;;6.42;86.30;99345.72;1085001;54;20039;-80
2022/11/20 04:56:20;;;;;;;12.02;7.90;;;;;;;6.36;86.37;99348.91;1085187;39;20545;-81
2022/11/20 04:57:21;;;;;;;11.68;7.95;;;;;;;6.42;86.50;99342.22;1084812;54;20042;-81
2022/11/20 04:58:27;;;;;;;10.73;7.57;;;;;;;6.52;85.95;99340.41;1085083;54;20043;-82
2022/11/20 04:59:31;;;;;;;8.98;7.25;;;;;;;6.56;85.57;99342.66;1085766;54;20057;-79
2022/11/20 05:00:39;;;;;;;9.73;7.85;;;;;;;6.52;85.50;99333.31;1086294;54;20065;-82
2022/11/20 05:01:44;;;;;;;9.43;7.20;;;;;;;6.63;85.15;99335.00;1086155;54;20065;-78
2022/11/20 05:02:50;;;;;;;11.35;8.57;;;;;;;6.66;85.14;99333.91;1085049;54;20045;-79
2022/11/20 05:04:31;;;;;;;10.65;8.00;;;;;;;6.48;84.77;99331.88;1085993;54;20034;-81
2022/11/20 05:05:33;;;;;;;;;;;;;;;6.45;85.06;99336.63;1086216;54;20038;-81
2022/11/20 05:06:37;;;;;;;10.02;6.47;;;;;;;6.44;85.19;99334.94;1085924;54;19950;-80
2022/11/20 05:07:42;;;;;;;9.90;7.28;;;;;;;6.47;85.01;99324.88;1086708;54;20038;-80
2022/11/20 05:08:49;;;;;;;9.60;6.63;;;;;;;6.53;84.77;99334.13;1087288;54;20075;-79
2022/11/20 05:09:53;;;;;;;8.98;6.20;;;;;;;6.50;84.93;99340.56;1085593;54;20050;-80
2022/11/20 05:45:25;;;;;;;14.75;9.93;;;;;;;5.67;83.72;99353.84;1087260;39;20527;-79
2022/11/20 05:46:27;;;;;;;13.35;10.10;;;;;;;5.67;83.96;99350.38;1086560;47;20069;-80
2022/11/20 05:47:45;;;;;;;13.88;9.85;;;;;;;5.70;84.31;99355.44;1086122;54;20027;-77
2022/11/20 05:48:47;;;;;;;12.95;9.77;;;;;;;5.74;83.92;99347.06;1086070;46;20103;-80
2022/11/20 05:49:52;;;;;;;12.57;9.57;;;;;;;5.80;83.66;99352.81;1085751;46;20029;-79
2022/11/20 05:50:54;;;;;;;12.05;8.80;;;;;;;5.83;83.61;99342.78;1088275;39;20504;-79
2022/11/20 05:51:58;;;;;;;12.93;9.10;;;;;;;5.87;83.64;99338.91;1086926;39;20562;-79
2022/11/20 05:53:00;;;;;;;13.10;8.63;;;;;;;5.93;83.92;99340.19;1085846;46;20035;-79
2022/11/20 05:54:04;;;;;;;11.48;8.82;;;;;;;5.96;83.62;99336.44;1086054;46;20051;-79
2022/11/20 05:55:18;;;;;;;11.25;8.05;;;;;;;6.03;83.23;99335.81;1086241;46;20022;-80
2022/11/20 05:56:31;;;;;;;11.55;9.18;;;;;;;5.99;83.63;99337.03;1085925;54;20026;-79
2022/11/20 05:57:33;;;;;;;11.65;8.82;;;;;;;6.05;83.61;99336.50;1086565;54;20089;-79
2022/11/20 05:58:53;;;;;;;12.13;9.05;;;;;;;6.05;83.69;99346.28;1086357;54;20154;-79
2022/11/20 05:59:54;;;;;;;13.70;9.23;;;;;;;6.07;83.74;99341.69;1086189;46;20034;-79